Time;durP1;ratioP1;P1;durP2;ratioP2;P2;SDS_P1;SDS_P2;PMS_P1;PMS_P2;Temp;Humidity;BMP_temperature;BMP_pressure;BME280_temperature;BME280_humidity;BME280_pressure;Samples;Min_cycle;Max_cycle;Signal;HPM_P1;HPM_P2
2024/04/22 00:00:03;;;;;;;1.27;1.17;;;;;;;22.44;39.72;101374.72;7392877;19;20672;-90
2024/04/22 00:02:34;;;;;;;5.15;1.17;;;;;;;22.65;39.71;101377.25;7392909;19;20510;-90
2024/04/22 00:05:00;;;;;;;0.98;0.95;;;;;;;22.80;39.46;101375.66;7393777;19;20014;-91
2024/04/22 00:07:26;;;;;;;0.70;0.70;;;;;;;22.72;39.56;101382.41;7392319;19;20039;-90
2024/04/22 00:09:54;;;;;;;4.25;1.02;;;;;;;22.66;39.62;101373.91;7391636;19;20099;-90
2024/04/22 00:12:20;;;;;;;1.10;0.98;;;;;;;22.50;40.14;101377.56;7392431;19;20018;-90
2024/04/22 00:14:46;;;;;;;0.75;0.75;;;;;;;22.66;39.87;101378.78;7393700;19;20042;-90
2024/04/22 00:17:12;;;;;;;2.88;0.98;;;;;;;22.65;39.63;101382.94;7392801;19;20035;-90
2024/04/22 00:19:38;;;;;;;0.45;0.45;;;;;;;22.69;39.55;101374.91;7391960;19;20027;-90
2024/04/22 00:22:04;;;;;;;0.70;0.70;;;;;;;22.69;39.71;101366.41;7393295;19;20035;-90
2024/04/22 00:24:30;;;;;;;5.05;1.17;;;;;;;22.27;40.17;101370.41;7393014;19;20018;-89
2024/04/22 00:26:56;;;;;;;0.90;0.90;;;;;;;22.46;40.22;101369.28;7394521;19;20022;-90
2024/04/22 00:29:22;;;;;;;0.85;0.80;;;;;;;22.42;40.45;101365.97;7392979;19;20020;-89
2024/04/22 00:31:48;;;;;;;0.85;0.60;;;;;;;22.26;40.82;101358.25;7391956;19;20010;-89
2024/04/22 00:34:15;;;;;;;0.43;0.43;;;;;;;22.40;40.72;101362.09;7394802;19;20015;-89
2024/04/22 00:36:41;;;;;;;1.05;0.77;;;;;;;22.47;40.46;101356.66;7392997;19;20021;-90
2024/04/22 00:39:07;;;;;;;1.05;0.60;;;;;;;22.48;40.24;101366.72;7392336;19;20027;-90
2024/04/22 00:41:35;;;;;;;2.00;0.95;;;;;;;22.42;40.67;101353.81;7393172;19;20022;-90
2024/04/22 00:44:01;;;;;;;0.50;0.50;;;;;;;22.83;40.46;101353.91;7391415;19;20034;-90
2024/04/22 00:46:27;;;;;;;0.98;0.68;;;;;;;23.24;40.08;101349.00;7394466;19;20015;-90
2024/04/22 00:48:54;;;;;;;0.50;0.50;;;;;;;23.24;39.82;101346.16;7392232;19;20691;-90
2024/04/22 00:51:21;;;;;;;0.68;0.68;;;;;;;22.95;39.94;101344.81;7391036;19;20063;-90
2024/04/22 00:53:47;;;;;;;6.93;1.48;;;;;;;22.84;40.07;101344.13;7392209;19;20015;-90
2024/04/22 00:56:14;;;;;;;1.95;0.88;;;;;;;22.94;40.36;101337.59;7394964;19;20050;-90
2024/04/22 00:58:40;;;;;;;7.78;1.60;;;;;;;22.78;40.48;101332.00;7391001;19;20017;-90
2024/04/22 01:01:09;;;;;;;0.40;0.40;;;;;;;22.63;40.62;101329.53;7392251;19;20021;-89
2024/04/22 01:03:36;;;;;;;0.80;0.80;;;;;;;22.94;40.56;101333.97;7391300;19;20010;-90
2024/04/22 01:06:02;;;;;;;0.77;0.77;;;;;;;22.81;40.58;101328.09;7390994;19;20018;-89
2024/04/22 01:08:28;;;;;;;8.70;1.15;;;;;;;22.90;40.37;101319.28;7394826;19;20082;-89
2024/04/22 01:10:54;;;;;;;0.50;0.50;;;;;;;22.96;40.61;101311.47;7390794;19;20014;-89
2024/04/22 01:13:20;;;;;;;0.82;0.82;;;;;;;23.00;40.36;101320.53;7390659;19;20010;-89
2024/04/22 01:15:47;;;;;;;4.50;0.98;;;;;;;22.92;40.83;101323.13;7391266;19;20006;-89
2024/04/22 01:18:20;;;;;;;0.98;0.75;;;;;;;23.14;40.28;101319.38;7392804;19;20014;-89
2024/04/22 01:20:46;;;;;;;0.40;0.40;;;;;;;22.83;40.81;101326.28;7389766;19;20056;-89
2024/04/22 01:23:12;;;;;;;1.23;1.23;;;;;;;22.73;40.62;101336.44;7390649;19;20010;-89
2024/04/22 01:25:42;;;;;;;0.65;0.65;;;;;;;22.87;40.91;101326.03;7393749;19;20022;-89
2024/04/22 01:28:08;;;;;;;1.40;0.60;;;;;;;22.58;41.24;101322.53;7391085;19;20014;-89
2024/04/22 01:30:35;;;;;;;1.85;0.90;;;;;;;22.66;40.83;101330.50;7392143;19;20018;-90
2024/04/22 01:33:01;;;;;;;0.50;0.50;;;;;;;22.63;40.88;101328.75;7388633;19;20143;-89
2024/04/22 01:35:27;;;;;;;0.98;0.93;;;;;;;22.55;41.27;101326.41;7390779;19;20011;-89
2024/04/22 01:37:53;;;;;;;0.85;0.85;;;;;;;22.53;41.23;101322.56;7389173;19;20086;-89
2024/04/22 01:40:19;;;;;;;1.02;0.93;;;;;;;22.57;40.98;101326.66;7389132;19;20021;-89
2024/04/22 01:42:45;;;;;;;0.40;0.40;;;;;;;22.32;41.20;101336.34;7388894;19;20066;-89
2024/04/22 01:45:11;;;;;;;1.00;0.93;;;;;;;22.47;41.29;101324.66;7389581;19;20126;-89
2024/04/22 01:47:38;;;;;;;3.40;0.80;;;;;;;22.24;41.38;101318.28;7389565;19;20031;-90
2024/04/22 01:50:06;;;;;;;0.63;0.63;;;;;;;22.23;41.84;101319.59;7388026;19;20444;-89
2024/04/22 01:52:32;;;;;;;0.70;0.70;;;;;;;22.19;41.75;101318.31;7388760;19;20422;-89
2024/04/22 01:54:58;;;;;;;0.85;0.80;;;;;;;22.14;42.25;101317.03;7388584;19;20010;-89
2024/04/22 01:57:24;;;;;;;0.70;0.70;;;;;;;21.95;42.08;101309.59;7389704;19;20020;-89
2024/04/22 01:59:50;;;;;;;0.50;0.50;;;;;;;22.63;41.63;101306.03;7387605;19;20022;-89
2024/04/22 02:02:17;;;;;;;3.58;1.38;;;;;;;22.82;41.33;101304.09;7388677;19;20018;-87
2024/04/22 02:04:43;;;;;;;0.30;0.30;;;;;;;22.76;41.39;101298.44;7392597;19;20018;-89
2024/04/22 02:07:09;;;;;;;0.57;0.57;;;;;;;22.84;41.27;101295.81;7389035;19;20014;-89
2024/04/22 02:09:35;;;;;;;2.65;1.02;;;;;;;22.91;41.25;101293.19;7387102;19;20022;-89
2024/04/22 02:12:01;;;;;;;0.60;0.60;;;;;;;22.91;41.39;101298.88;7387516;19;20018;-90
2024/04/22 02:14:27;;;;;;;0.98;0.82;;;;;;;22.90;41.20;101299.38;7388626;19;20035;-89
2024/04/22 02:16:53;;;;;;;1.20;1.15;;;;;;;22.86;41.39;101290.38;7393792;19;20015;-88
2024/04/22 02:19:20;;;;;;;5.78;1.02;;;;;;;22.86;41.36;101290.38;7390130;19;20018;-89
2024/04/22 02:21:46;;;;;;;1.00;0.90;;;;;;;22.54;41.92;101309.91;7388879;19;20022;-89
2024/04/22 02:24:12;;;;;;;0.45;0.45;;;;;;;22.50;42.02;101298.81;7389559;19;20473;-90
2024/04/22 02:26:38;;;;;;;0.70;0.70;;;;;;;22.47;42.01;101288.50;7388285;19;20019;-89
2024/04/22 02:29:04;;;;;;;0.65;0.65;;;;;;;22.02;42.40;101287.16;7392119;19;20497;-89
2024/04/22 02:31:30;;;;;;;0.88;0.88;;;;;;;21.81;43.10;101291.56;7387768;19;20018;-90
2024/04/22 02:33:56;;;;;;;1.27;0.82;;;;;;;22.19;42.54;101290.72;7387991;19;20047;-89
2024/04/22 02:36:22;;;;;;;2.03;0.73;;;;;;;21.94;42.75;101280.47;7389811;19;20027;-89
2024/04/22 02:38:48;;;;;;;0.88;0.88;;;;;;;22.05;43.24;101280.44;7386541;19;20361;-89
2024/04/22 02:41:14;;;;;;;0.43;0.43;;;;;;;22.12;42.91;101285.56;7392020;19;20138;-89
2024/04/22 02:43:41;;;;;;;3.58;1.48;;;;;;;22.07;43.25;101282.75;7390032;19;20480;-90
2024/04/22 02:46:07;;;;;;;1.08;1.08;;;;;;;22.04;43.40;101283.78;7388646;19;20027;-89
2024/04/22 02:48:33;;;;;;;2.05;0.85;;;;;;;21.97;43.28;101273.75;7388220;19;20386;-88
2024/04/22 02:51:02;;;;;;;1.13;1.05;;;;;;;22.07;43.20;101269.31;7390259;19;20019;-89
2024/04/22 02:53:29;;;;;;;0.90;0.90;;;;;;;22.01;42.92;101277.09;7388348;19;20030;-89
2024/04/22 02:55:55;;;;;;;2.40;1.02;;;;;;;21.84;43.59;101271.47;7391688;19;20014;-89
2024/04/22 02:58:21;;;;;;;0.45;0.45;;;;;;;22.01;43.53;101279.94;7388062;19;20014;-90
2024/04/22 03:00:48;;;;;;;3.22;0.80;;;;;;;22.05;43.21;101269.06;7388038;19;20019;-89
2024/04/22 03:03:15;;;;;;;0.60;0.35;;;;;;;22.05;42.97;101286.09;7388357;19;20011;-89
2024/04/22 03:05:41;;;;;;;1.27;1.13;;;;;;;21.93;42.95;101278.94;7392303;19;20010;-89
2024/04/22 03:08:08;;;;;;;1.27;0.55;;;;;;;21.82;43.38;101273.25;7394972;19;20737;-89
2024/04/22 03:10:38;;;;;;;1.20;0.80;;;;;;;22.04;43.27;101273.22;7393174;19;20003;-89
2024/04/22 03:13:11;;;;;;;0.95;0.95;;;;;;;21.96;43.10;101266.53;7392503;19;20042;-90
2024/04/22 03:15:38;;;;;;;1.88;1.00;;;;;;;21.89;43.11;101272.75;7396194;19;20022;-89
2024/04/22 03:18:05;;;;;;;1.65;1.50;;;;;;;21.82;43.74;101267.59;7395185;19;20545;-90
2024/04/22 03:20:34;;;;;;;1.45;1.35;;;;;;;21.61;43.50;101260.69;7392027;19;20472;-89
2024/04/22 03:23:00;;;;;;;0.77;0.77;;;;;;;21.58;44.04;101256.03;7397097;19;20054;-89
2024/04/22 03:25:27;;;;;;;1.75;0.88;;;;;;;21.48;43.94;101251.94;7396697;19;20022;-90
2024/04/22 03:27:53;;;;;;;2.00;1.15;;;;;;;21.70;43.82;101243.38;7394876;19;20473;-89
2024/04/22 03:30:19;;;;;;;1.58;0.93;;;;;;;21.69;43.81;101241.84;7394141;19;20074;-89
2024/04/22 03:32:45;;;;;;;0.50;0.50;;;;;;;21.49;44.38;101244.97;7394352;19;20032;-89
2024/04/22 03:35:11;;;;;;;0.65;0.65;;;;;;;21.33;44.42;101238.03;7396217;19;20014;-89
2024/04/22 03:37:37;;;;;;;1.45;1.35;;;;;;;21.31;44.66;101239.84;7396337;19;20027;-89
2024/04/22 03:40:04;;;;;;;1.67;1.48;;;;;;;21.25;44.78;101241.88;7394829;19;20034;-89
2024/04/22 03:42:30;;;;;;;0.80;0.80;;;;;;;21.39;44.41;101230.31;7393574;19;20022;-89
2024/04/22 03:44:56;;;;;;;0.90;0.88;;;;;;;21.45;44.64;101225.38;7394661;19;20022;-89
2024/04/22 03:50:06;;;;;;;0.30;0.30;;;;;;;21.69;44.16;101207.81;7392474;19;20022;-89
2024/04/22 03:52:33;;;;;;;0.70;0.70;;;;;;;21.66;44.01;101220.19;7392377;19;20031;-89
2024/04/22 03:54:59;;;;;;;0.75;0.75;;;;;;;21.62;44.18;101202.66;7396010;19;20368;-88
2024/04/22 03:57:25;;;;;;;0.65;0.60;;;;;;;21.75;44.10;101214.22;7393844;19;20363;-89
2024/04/22 03:59:51;;;;;;;1.45;1.35;;;;;;;21.86;43.88;101208.53;7391338;19;20039;-89
2024/04/22 04:02:17;;;;;;;0.93;0.93;;;;;;;21.69;44.18;101219.16;7394200;19;20025;-89
2024/04/22 04:04:43;;;;;;;0.93;0.93;;;;;;;21.38;44.64;101216.63;7393231;19;20322;-89
2024/04/22 04:07:09;;;;;;;2.08;1.05;;;;;;;21.75;44.39;101217.06;7394573;19;20044;-89
2024/04/22 04:09:36;;;;;;;1.27;1.17;;;;;;;21.69;44.29;101210.63;7392495;19;20022;-88
2024/04/22 04:12:02;;;;;;;0.93;0.90;;;;;;;21.77;44.24;101209.56;7393233;19;20025;-89
2024/04/22 04:14:28;;;;;;;1.17;1.05;;;;;;;21.79;44.12;101211.88;7391533;19;20056;-88
2024/04/22 04:16:54;;;;;;;2.83;0.70;;;;;;;21.83;44.16;101203.91;7391631;19;20474;-89
2024/04/22 04:19:21;;;;;;;0.45;0.40;;;;;;;21.87;43.97;101204.44;7397348;19;20021;-89
2024/04/22 04:21:47;;;;;;;0.88;0.88;;;;;;;21.97;43.98;101200.00;7393598;19;20022;-89
2024/04/22 04:24:13;;;;;;;1.05;0.85;;;;;;;21.95;43.83;101201.81;7392079;19;20019;-90
2024/04/22 04:26:39;;;;;;;1.10;1.10;;;;;;;22.00;44.13;101209.53;7391867;19;20014;-91
2024/04/22 04:29:06;;;;;;;0.85;0.85;;;;;;;21.86;43.79;101200.03;7395304;19;20019;-91
2024/04/22 04:31:32;;;;;;;11.07;1.70;;;;;;;21.73;44.02;101202.63;7393496;19;20018;-91
2024/04/22 04:33:58;;;;;;;0.82;0.82;;;;;;;21.56;44.48;101210.41;7394231;19;20018;-91
2024/04/22 04:36:25;;;;;;;1.92;1.25;;;;;;;21.66;44.42;101203.94;7393258;19;20031;-91
2024/04/22 04:38:51;;;;;;;0.93;0.90;;;;;;;21.73;43.98;101209.09;7395806;19;20015;-90
2024/04/22 04:41:20;;;;;;;0.82;0.82;;;;;;;22.04;43.84;101196.63;7392782;19;20345;-90
2024/04/22 04:43:46;;;;;;;2.58;0.75;;;;;;;22.09;43.50;101195.78;7391737;19;20007;-90
2024/04/22 04:46:12;;;;;;;3.60;0.82;;;;;;;21.62;44.53;101202.66;7394206;19;20106;-90
2024/04/22 04:48:38;;;;;;;1.65;1.23;;;;;;;21.53;44.72;101200.09;7392932;19;20018;-89
2024/04/22 04:51:04;;;;;;;1.85;1.60;;;;;;;21.51;45.00;101191.34;7392237;19;20469;-90
2024/04/22 04:53:31;;;;;;;1.40;1.30;;;;;;;21.62;44.57;101183.59;7390767;19;20014;-90
2024/04/22 04:55:57;;;;;;;8.07;1.15;;;;;;;21.63;44.63;101181.53;7394393;19;20015;-88
2024/04/22 04:58:23;;;;;;;0.77;0.70;;;;;;;21.26;45.63;101183.94;7391201;19;20460;-88
2024/04/22 05:00:49;;;;;;;0.77;0.77;;;;;;;21.23;45.59;101180.06;7389648;19;20095;-88
2024/04/22 05:03:15;;;;;;;1.10;0.63;;;;;;;21.44;45.14;101169.22;7390912;19;20111;-88
2024/04/22 05:05:41;;;;;;;2.00;1.60;;;;;;;21.57;45.35;101177.94;7390610;19;20006;-88
2024/04/22 05:08:07;;;;;;;2.35;1.33;;;;;;;21.80;45.05;101176.56;7391227;19;20022;-87
2024/04/22 05:10:34;;;;;;;1.13;0.63;;;;;;;21.51;45.29;101165.84;7392461;19;20337;-87
2024/04/22 05:13:00;;;;;;;0.98;0.73;;;;;;;21.38;45.14;101165.63;7389114;19;20052;-88
2024/04/22 05:15:27;;;;;;;1.85;0.93;;;;;;;21.31;45.62;101169.75;7390724;19;20022;-87
2024/04/22 05:17:53;;;;;;;0.80;0.80;;;;;;;21.16;45.99;101162.84;7392158;19;20018;-88
2024/04/22 05:20:19;;;;;;;2.05;0.75;;;;;;;21.33;45.94;101163.59;7392025;19;20018;-87
2024/04/22 05:22:45;;;;;;;1.35;1.13;;;;;;;21.32;45.84;101156.34;7390694;19;20010;-87
2024/04/22 05:25:11;;;;;;;0.43;0.43;;;;;;;21.43;45.86;101162.78;7391857;19;20082;-87
2024/04/22 05:27:37;;;;;;;9.05;1.20;;;;;;;21.44;46.16;101164.31;7388810;19;20444;-88
2024/04/22 05:30:04;;;;;;;1.50;1.27;;;;;;;21.50;46.03;101152.97;7389096;19;20018;-88
2024/04/22 05:32:32;;;;;;;2.40;1.10;;;;;;;21.46;45.83;101156.06;7389280;19;20014;-87
2024/04/22 05:37:56;;;;;;;0.65;0.65;;;;;;;21.44;45.73;101152.22;7388490;19;20015;-87
2024/04/22 05:40:22;;;;;;;3.03;0.95;;;;;;;21.50;45.81;101150.13;7390769;19;20022;-87
2024/04/22 05:42:48;;;;;;;0.95;0.75;;;;;;;21.86;45.59;101148.97;7388836;19;20517;-86
2024/04/22 05:45:14;;;;;;;1.75;1.02;;;;;;;22.05;45.47;101149.91;7390664;19;20033;-87
2024/04/22 05:47:40;;;;;;;1.48;1.38;;;;;;;22.21;45.70;101149.06;7389202;19;20337;-86
2024/04/22 05:50:06;;;;;;;1.30;0.90;;;;;;;22.38;44.97;101152.56;7388743;19;20373;-86
2024/04/22 05:52:32;;;;;;;3.33;1.13;;;;;;;22.54;44.91;101145.97;7388958;19;20565;-87
2024/04/22 05:55:00;;;;;;;2.22;0.85;;;;;;;22.76;44.65;101141.44;7390790;19;20014;-87
2024/04/22 05:57:26;;;;;;;1.20;1.10;;;;;;;22.81;44.81;101141.38;7389300;19;20022;-86
2024/04/22 05:59:52;;;;;;;1.05;0.85;;;;;;;22.86;44.78;101136.97;7386841;19;20027;-86
2024/04/22 06:02:18;;;;;;;1.38;1.05;;;;;;;22.88;44.67;101134.34;7389482;19;20015;-86
2024/04/22 06:04:44;;;;;;;0.77;0.77;;;;;;;23.11;44.38;101130.78;7390325;19;20027;-86
2024/04/22 06:07:10;;;;;;;1.27;0.70;;;;;;;23.27;44.40;101129.06;7388606;19;20150;-86
2024/04/22 06:09:36;;;;;;;2.08;1.42;;;;;;;23.08;44.59;101125.38;7388816;19;20018;-87
2024/04/22 06:12:03;;;;;;;1.10;1.00;;;;;;;23.38;43.97;101131.81;7387841;19;20015;-86
2024/04/22 06:14:29;;;;;;;2.10;1.50;;;;;;;23.21;44.32;101128.34;7389709;19;20013;-86
2024/04/22 06:16:55;;;;;;;0.40;0.30;;;;;;;23.20;44.33;101126.81;7389681;19;20476;-87
2024/04/22 06:19:21;;;;;;;2.45;1.00;;;;;;;23.19;44.21;101126.06;7386681;19;20019;-87
2024/04/22 06:21:47;;;;;;;0.60;0.60;;;;;;;23.19;44.16;101130.97;7387588;19;20010;-87
2024/04/22 06:24:13;;;;;;;1.10;0.45;;;;;;;23.11;44.34;101125.09;7387477;19;20377;-86
2024/04/22 06:26:39;;;;;;;0.75;0.75;;;;;;;23.33;44.16;101118.41;7389315;19;20014;-87
2024/04/22 06:29:05;;;;;;;1.65;1.30;;;;;;;23.41;43.85;101124.28;7386828;19;20354;-86
2024/04/22 06:31:31;;;;;;;1.02;0.88;;;;;;;22.77;44.43;101128.78;7387462;19;20030;-86
2024/04/22 06:33:57;;;;;;;8.98;1.00;;;;;;;22.36;44.91;101123.91;7390050;19;20010;-87
2024/04/22 06:36:24;;;;;;;3.55;0.65;;;;;;;21.97;45.66;101123.41;7389207;19;20078;-86
2024/04/22 06:38:50;;;;;;;1.65;1.42;;;;;;;21.77;45.72;101118.03;7388528;19;20081;-87
2024/04/22 06:41:16;;;;;;;10.35;0.82;;;;;;;21.28;46.92;101116.19;7395727;19;20480;-87
2024/04/22 06:43:43;;;;;;;1.67;1.27;;;;;;;21.26;46.78;101116.72;7397289;19;20022;-87
2024/04/22 06:46:09;;;;;;;1.05;1.00;;;;;;;21.46;46.61;101115.63;7395248;19;20014;-87
2024/04/22 06:48:35;;;;;;;2.92;0.85;;;;;;;21.53;46.76;101109.38;7399138;19;20984;-86
2024/04/22 06:51:02;;;;;;;1.35;0.73;;;;;;;21.63;46.47;101116.31;7394170;19;20034;-86
2024/04/22 06:53:28;;;;;;;0.55;0.55;;;;;;;21.48;46.99;101104.53;7394383;19;20014;-85
2024/04/22 06:55:55;;;;;;;0.68;0.68;;;;;;;21.87;46.33;101111.56;7398180;19;20023;-87
2024/04/22 06:58:21;;;;;;;3.13;0.70;;;;;;;22.03;46.21;101107.09;7394056;19;20078;-86
2024/04/22 07:00:47;;;;;;;2.83;1.15;;;;;;;22.10;46.02;101117.13;7392983;19;20010;-87
2024/04/22 07:03:13;;;;;;;3.03;0.80;;;;;;;22.21;45.78;101106.47;7394844;19;20021;-87
2024/04/22 07:05:40;;;;;;;0.68;0.68;;;;;;;22.21;45.87;101106.47;7396306;19;20029;-86
2024/04/22 07:08:06;;;;;;;1.02;0.93;;;;;;;22.10;46.22;101106.56;7395342;19;20018;-87
2024/04/22 07:10:32;;;;;;;1.20;0.95;;;;;;;22.09;46.14;101099.31;7391567;19;20022;-87
2024/04/22 07:12:58;;;;;;;0.40;0.40;;;;;;;21.67;46.65;101094.13;7392021;19;20018;-86
2024/04/22 07:15:24;;;;;;;0.50;0.50;;;;;;;21.74;47.23;101100.00;7393855;19;20502;-87
2024/04/22 07:17:50;;;;;;;4.00;1.27;;;;;;;21.64;47.26;101093.09;7393264;19;20046;-86
2024/04/22 07:20:17;;;;;;;3.33;0.98;;;;;;;21.49;47.22;101092.66;7392314;19;20015;-86
2024/04/22 07:22:43;;;;;;;4.88;1.17;;;;;;;21.52;47.05;101096.53;7393484;19;20010;-86
2024/04/22 07:25:09;;;;;;;1.50;1.17;;;;;;;21.55;47.11;101095.50;7396821;19;20018;-87
2024/04/22 07:27:36;;;;;;;3.28;0.85;;;;;;;21.52;47.09;101099.34;7396189;19;20497;-87
2024/04/22 07:30:04;;;;;;;1.90;1.40;;;;;;;21.56;47.21;101091.34;7393868;19;20018;-87
2024/04/22 07:32:30;;;;;;;1.98;1.27;;;;;;;21.88;46.73;101095.34;7392192;19;20024;-86
2024/04/22 07:34:57;;;;;;;1.23;0.88;;;;;;;21.57;47.12;101087.22;7397150;19;20014;-87
2024/04/22 07:37:33;;;;;;;8.90;1.30;;;;;;;21.47;47.45;101094.47;7393729;19;20031;-86
2024/04/22 07:40:02;;;;;;;15.02;1.35;;;;;;;21.36;47.87;101100.19;7391085;19;20021;-89
2024/04/22 07:42:28;;;;;;;3.83;0.90;;;;;;;21.42;47.86;101101.69;7393518;19;20018;-87
2024/04/22 07:44:54;;;;;;;0.75;0.70;;;;;;;21.55;47.71;101089.81;7396436;19;20021;-87
2024/04/22 07:47:20;;;;;;;2.17;1.52;;;;;;;21.54;47.74;101083.38;7393938;19;20019;-88
2024/04/22 07:49:46;;;;;;;1.33;1.23;;;;;;;21.50;48.10;101093.44;7392984;19;20445;-87
2024/04/22 07:52:13;;;;;;;6.07;1.13;;;;;;;21.50;48.38;101093.44;7391524;19;20019;-86
2024/04/22 07:54:39;;;;;;;1.95;0.80;;;;;;;21.61;47.83;101084.88;7394449;19;20040;-88
2024/04/22 07:57:06;;;;;;;7.32;0.82;;;;;;;21.69;47.69;101094.38;7398578;19;20010;-87
2024/04/22 07:59:32;;;;;;;3.20;1.02;;;;;;;21.87;47.59;101082.47;7394182;19;20021;-88
2024/04/22 08:01:59;;;;;;;0.75;0.75;;;;;;;22.12;47.27;101089.78;7392308;19;20022;-86
2024/04/22 08:04:26;;;;;;;3.90;1.02;;;;;;;22.13;47.38;101085.66;7392399;19;20471;-88
2024/04/22 08:06:56;;;;;;;1.30;0.88;;;;;;;22.20;47.03;101070.88;7397445;19;20018;-87
2024/04/22 08:09:22;;;;;;;2.17;1.63;;;;;;;22.29;46.68;101078.28;7390331;19;20018;-87
2024/04/22 08:11:48;;;;;;;1.08;0.98;;;;;;;22.15;46.71;101079.44;7390879;19;20022;-86
2024/04/22 08:14:15;;;;;;;1.45;1.35;;;;;;;22.20;47.10;101070.88;7391885;19;20109;-85
2024/04/22 08:16:41;;;;;;;6.22;0.98;;;;;;;22.51;47.01;101072.44;7395407;19;20007;-87
2024/04/22 08:19:07;;;;;;;1.90;1.42;;;;;;;22.60;46.58;101067.22;7391932;19;20019;-89
2024/04/22 08:21:33;;;;;;;2.90;1.35;;;;;;;22.22;46.89;101073.19;7392676;19;20323;-89
2024/04/22 08:23:59;;;;;;;1.60;1.50;;;;;;;22.09;47.04;101073.03;7393656;19;20465;-89
2024/04/22 08:26:25;;;;;;;1.08;0.98;;;;;;;22.16;47.66;101076.06;7395506;19;20070;-88
2024/04/22 08:28:51;;;;;;;1.88;1.20;;;;;;;22.29;47.70;101081.91;7391244;19;20414;-89
2024/04/22 08:31:18;;;;;;;1.60;0.95;;;;;;;22.52;47.22;101079.66;7392811;19;20037;-89
2024/04/22 08:33:44;;;;;;;2.10;1.42;;;;;;;22.89;46.30;101079.09;7393752;19;20050;-89
2024/04/22 08:36:10;;;;;;;7.72;1.15;;;;;;;23.45;46.10;101071.50;7394383;19;20082;-89
2024/04/22 08:38:36;;;;;;;0.95;0.93;;;;;;;22.80;46.57;101065.22;7391707;19;20026;-89
2024/04/22 08:41:03;;;;;;;2.83;0.70;;;;;;;22.45;47.50;101078.16;7391876;19;20007;-89
2024/04/22 08:43:29;;;;;;;3.63;2.53;;;;;;;22.48;47.61;101068.59;7391361;19;20022;-89
2024/04/22 08:45:55;;;;;;;7.70;2.20;;;;;;;22.57;46.96;101070.31;7392422;19;20015;-89
2024/04/22 08:48:21;;;;;;;2.05;1.67;;;;;;;22.25;46.84;101061.56;7394505;19;20088;-90
2024/04/22 08:50:50;;;;;;;4.70;2.28;;;;;;;22.30;47.20;101057.91;7389851;19;20019;-87
2024/04/22 08:53:16;;;;;;;3.45;1.27;;;;;;;22.23;47.63;101058.47;7390958;19;20030;-87
2024/04/22 08:55:42;;;;;;;1.52;1.42;;;;;;;22.56;47.08;101068.78;7396086;19;20492;-88
2024/04/22 08:58:09;;;;;;;0.95;0.88;;;;;;;22.53;46.84;101067.78;7391680;19;20014;-88
2024/04/22 09:00:36;;;;;;;3.70;1.67;;;;;;;22.46;46.97;101065.50;7391553;19;20031;-88
2024/04/22 09:03:02;;;;;;;3.67;2.03;;;;;;;22.51;47.37;101063.91;7391502;19;20018;-87
2024/04/22 09:05:29;;;;;;;4.43;1.48;;;;;;;22.48;47.62;101054.38;7391690;19;20014;-87
2024/04/22 09:08:05;;;;;;;1.10;0.90;;;;;;;22.84;46.98;101060.03;7390787;19;20035;-87
2024/04/22 09:10:32;;;;;;;1.85;1.73;;;;;;;22.69;47.53;101068.97;7387428;19;20022;-88
2024/04/22 09:13:00;;;;;;;13.10;1.77;;;;;;;22.70;48.02;101055.53;7392312;19;20049;-87
2024/04/22 09:15:27;;;;;;;1.70;1.27;;;;;;;22.83;47.88;101052.78;7390702;19;20018;-87
2024/04/22 09:17:54;;;;;;;4.32;1.23;;;;;;;23.04;47.39;101045.34;7392185;19;20022;-88
2024/04/22 09:20:25;;;;;;;4.32;1.73;;;;;;;22.91;47.61;101048.06;7390323;19;20026;-87
2024/04/22 09:22:52;;;;;;;2.50;1.88;;;;;;;22.93;47.92;101049.09;7389903;19;20018;-87
2024/04/22 09:25:18;;;;;;;2.67;1.35;;;;;;;23.03;47.60;101055.16;7394430;19;20078;-87
2024/04/22 09:27:46;;;;;;;1.00;0.88;;;;;;;22.86;47.88;101048.91;7390444;19;20014;-87
2024/04/22 09:30:14;;;;;;;1.63;1.25;;;;;;;22.76;47.58;101042.03;7389359;19;20022;-87
2024/04/22 09:32:47;;;;;;;3.63;1.50;;;;;;;22.99;48.05;101043.34;7388854;19;20122;-86
2024/04/22 09:35:15;;;;;;;0.90;0.90;;;;;;;22.70;48.40;101047.75;7388891;19;20026;-87
2024/04/22 09:37:46;;;;;;;1.35;1.25;;;;;;;22.08;49.21;101038.22;7394879;19;20019;-87
2024/04/22 09:40:13;;;;;;;5.55;1.17;;;;;;;22.16;49.10;101029.88;7388953;19;20014;-87
2024/04/22 09:42:44;;;;;;;3.45;1.73;;;;;;;22.21;49.39;101026.25;7389873;19;20018;-87
2024/04/22 09:45:12;;;;;;;;;;;;;;;22.34;49.05;101029.22;7390469;19;20039;-86
2024/04/22 09:47:40;;;;;;;8.57;2.63;;;;;;;22.65;49.12;101030.78;7388608;19;19950;-86
2024/04/22 09:50:10;;;;;;;3.10;1.73;;;;;;;22.96;48.43;101027.34;7388907;19;20035;-87
2024/04/22 09:52:40;;;;;;;2.65;2.08;;;;;;;23.22;48.17;101028.31;7389522;19;20050;-87
2024/04/22 09:55:07;;;;;;;2.30;1.98;;;;;;;23.36;48.02;101015.00;7392436;19;20081;-87
2024/04/22 09:57:40;;;;;;;1.30;1.15;;;;;;;23.40;47.89;101020.38;7388544;19;20022;-87
2024/04/22 10:00:08;;;;;;;3.47;1.77;;;;;;;23.41;47.90;101022.72;7388338;19;20014;-87
2024/04/22 10:02:36;;;;;;;3.10;1.45;;;;;;;23.76;47.61;101022.44;7389144;19;20019;-86
2024/04/22 10:05:13;;;;;;;2.03;1.65;;;;;;;23.53;47.85;101012.72;7388818;19;20521;-87
2024/04/22 10:07:40;;;;;;;17.63;5.03;;;;;;;23.42;47.92;101012.84;7388737;19;20010;-87
2024/04/22 10:10:09;;;;;;;8.63;2.75;;;;;;;23.49;48.20;101012.25;7387412;19;20037;-87
2024/04/22 10:12:35;;;;;;;1.90;1.67;;;;;;;23.48;48.37;101009.91;7388332;19;20011;-87
2024/04/22 10:15:12;;;;;;;5.18;1.67;;;;;;;23.59;48.15;101002.00;7387618;19;20026;-87
2024/04/22 10:17:41;;;;;;;3.17;1.92;;;;;;;23.37;48.38;101010.84;7389239;19;20022;-87
2024/04/22 10:20:07;;;;;;;2.05;1.92;;;;;;;23.50;48.22;100995.97;7387542;19;20017;-87
2024/04/22 10:22:34;;;;;;;5.60;2.00;;;;;;;23.70;47.90;100993.31;7388648;19;20039;-87
2024/04/22 10:25:05;;;;;;;2.15;1.95;;;;;;;23.70;48.19;100998.22;7391114;19;20015;-87
2024/04/22 10:27:32;;;;;;;1.55;1.20;;;;;;;23.74;48.01;100993.78;7388376;19;20006;-87
2024/04/22 10:29:58;;;;;;;4.97;2.65;;;;;;;23.67;48.20;101005.75;7387247;19;20018;-87
2024/04/22 10:32:25;;;;;;;9.32;1.65;;;;;;;23.23;49.15;101001.44;7386448;19;20370;-86
2024/04/22 10:34:51;;;;;;;8.05;2.10;;;;;;;23.65;48.87;101002.69;7390445;19;20021;-87
2024/04/22 10:37:17;;;;;;;2.80;1.58;;;;;;;23.11;49.45;101007.78;7387292;19;20019;-86
2024/04/22 10:39:44;;;;;;;2.70;1.77;;;;;;;22.88;49.92;101004.44;7387293;19;20042;-85
2024/04/22 10:42:11;;;;;;;2.42;1.20;;;;;;;23.15;49.61;101005.44;7388395;19;20025;-85
2024/04/22 10:44:38;;;;;;;0.88;0.88;;;;;;;23.34;49.28;101004.19;7390573;19;20010;-85
2024/04/22 10:47:06;;;;;;;2.33;1.85;;;;;;;23.22;49.43;100996.28;7387361;19;20414;-85
2024/04/22 10:49:33;;;;;;;14.43;1.55;;;;;;;23.17;49.61;100997.13;7386575;19;20034;-85
2024/04/22 10:52:00;;;;;;;3.83;1.95;;;;;;;23.31;49.54;100993.06;7385840;19;20328;-86
2024/04/22 10:54:26;;;;;;;2.20;1.30;;;;;;;22.87;49.99;100991.53;7389416;19;20022;-86
2024/04/22 10:56:53;;;;;;;4.60;1.80;;;;;;;22.97;49.95;100992.72;7388909;19;20014;-87
2024/04/22 10:59:20;;;;;;;7.50;3.55;;;;;;;22.72;50.24;100993.28;7387565;19;20053;-85
2024/04/22 11:01:47;;;;;;;11.38;3.03;;;;;;;22.97;50.04;100989.13;7388823;19;20026;-85
2024/04/22 11:04:13;;;;;;;9.80;3.30;;;;;;;23.02;49.86;100985.44;7388353;19;20047;-87
2024/04/22 11:06:40;;;;;;;3.60;2.20;;;;;;;22.93;50.29;100988.66;7390047;19;20018;-87
2024/04/22 11:09:07;;;;;;;3.13;2.35;;;;;;;23.03;50.62;100978.44;7384950;19;20035;-87
2024/04/22 11:11:35;;;;;;;7.15;2.42;;;;;;;23.03;50.87;100981.28;7386325;19;20018;-87
2024/04/22 11:14:05;;;;;;;6.95;3.58;;;;;;;23.10;50.45;100969.31;7386518;19;20014;-87
2024/04/22 11:16:31;;;;;;;5.05;2.80;;;;;;;23.21;51.10;100974.88;7385944;19;20048;-87
2024/04/22 11:19:02;;;;;;;4.90;1.83;;;;;;;23.58;49.79;100974.13;7388217;19;20021;-87
2024/04/22 11:21:30;;;;;;;4.60;1.58;;;;;;;23.54;50.25;100970.81;7386898;19;20015;-90
2024/04/22 11:23:57;;;;;;;1.15;1.10;;;;;;;23.68;50.14;100963.88;7391732;19;20018;-87
2024/04/22 11:26:24;;;;;;;7.95;2.05;;;;;;;23.76;49.85;100964.78;7393253;19;20032;-87